createdAt,value
2024-03-21T00:00:09.737Z,8.85
2024-03-21T00:10:15.858Z,8.82
2024-03-21T00:20:22.010Z,8.6
2024-03-21T00:30:28.208Z,8.4
2024-03-21T00:40:34.302Z,8.36
2024-03-21T00:50:47.571Z,8.51
2024-03-21T01:00:53.726Z,8.51
2024-03-21T01:10:59.852Z,7.94
2024-03-21T01:21:05.997Z,8.16
2024-03-21T01:31:12.139Z,7.03
2024-03-21T01:41:18.291Z,7.62
2024-03-21T02:01:30.587Z,7.76
2024-03-21T02:11:36.719Z,7.74
2024-03-21T02:21:42.824Z,7.17
2024-03-21T02:31:48.988Z,7.11
2024-03-21T02:41:55.101Z,7.42
2024-03-21T02:52:01.244Z,6.6
2024-03-21T03:02:07.387Z,7.17
2024-03-21T03:12:13.527Z,6.71
2024-03-21T03:22:19.663Z,6.6
2024-03-21T03:32:25.805Z,6.72
2024-03-21T03:42:31.955Z,6.34
2024-03-21T03:52:38.095Z,6.68
2024-03-21T04:02:44.259Z,6.13
2024-03-21T04:12:50.358Z,6.61
2024-03-21T04:22:56.503Z,6.16
2024-03-21T04:33:02.630Z,6.52
2024-03-21T04:43:08.792Z,6.29
2024-03-21T04:53:14.921Z,6.33
2024-03-21T05:03:21.053Z,6.07
2024-03-21T05:13:27.214Z,6.5
2024-03-21T05:23:33.340Z,5.76
2024-03-21T05:33:39.534Z,5.91
2024-03-21T05:43:45.622Z,5.72
2024-03-21T05:53:51.760Z,5.59
2024-03-21T06:03:57.911Z,5.54
2024-03-21T06:14:04.031Z,5.29
2024-03-21T06:24:10.160Z,5.46
2024-03-21T06:34:17.672Z,5.43
2024-03-21T06:44:22.452Z,5.37
2024-03-21T06:54:35.751Z,5.35
2024-03-21T07:04:41.881Z,5.26
2024-03-21T07:14:48.021Z,5.08
2024-03-21T07:24:54.185Z,6.14
2024-03-21T07:35:00.332Z,5.68
2024-03-21T07:45:06.451Z,5.68
2024-03-21T07:55:12.590Z,5.19
2024-03-21T08:05:18.736Z,5.02
2024-03-21T08:15:26.268Z,5.6
2024-03-21T08:25:38.134Z,4.87
2024-03-21T08:35:44.287Z,4.62
2024-03-21T08:45:50.424Z,5.41
2024-03-21T08:55:56.564Z,5.79
2024-03-21T09:06:02.704Z,5.57
2024-03-21T09:16:08.909Z,4.97
2024-03-21T09:26:14.969Z,4.87
2024-03-21T09:36:21.135Z,4.55
2024-03-21T09:46:27.244Z,4.97
2024-03-21T09:56:33.410Z,4.79
2024-03-21T10:06:39.551Z,5.17
2024-03-21T10:16:45.688Z,5.05
2024-03-21T10:26:51.832Z,5.31
2024-03-21T10:36:57.949Z,4.64
2024-03-21T10:47:04.110Z,5.24
2024-03-21T10:57:10.309Z,5.23
2024-03-21T11:07:16.445Z,4.64
2024-03-21T11:17:22.639Z,5.09
2024-03-21T11:27:28.650Z,6.64
2024-03-21T11:37:34.779Z,7.19
2024-03-21T11:47:53.686Z,8.32
2024-03-21T11:57:59.855Z,6.68
2024-03-21T12:08:05.961Z,6.18
2024-03-21T12:18:12.151Z,6.19
2024-03-21T12:28:18.258Z,5.08
2024-03-21T12:38:24.372Z,4.59
2024-03-21T12:48:30.585Z,4.37
2024-03-21T12:58:36.747Z,4.77
2024-03-21T13:08:42.797Z,4.6
2024-03-21T13:18:48.936Z,4.11
2024-03-21T13:28:55.075Z,4.33
2024-03-21T13:39:01.218Z,4.1
2024-03-21T13:49:07.372Z,3.46
2024-03-21T13:59:13.533Z,3.86
2024-03-21T14:09:19.639Z,4.48
2024-03-21T14:19:25.776Z,3.94
2024-03-21T14:29:31.917Z,4.07
2024-03-21T14:39:38.056Z,3.49
2024-03-21T14:49:44.208Z,3.7
2024-03-21T15:00:03.142Z,3.92
2024-03-21T15:10:09.219Z,3.56
2024-03-21T15:20:15.385Z,3.51
2024-03-21T15:30:21.523Z,3.7
2024-03-21T15:40:27.642Z,3.67
2024-03-21T15:50:33.800Z,3.08
2024-03-21T16:00:39.928Z,3.45
2024-03-21T16:10:46.072Z,3.41
2024-03-21T16:20:52.217Z,3.42
2024-03-21T16:30:58.350Z,2.55
2024-03-21T16:41:04.516Z,3.98
2024-03-21T16:51:10.626Z,3.29
2024-03-21T17:01:16.760Z,3.07
2024-03-21T17:11:22.913Z,2.54
2024-03-21T17:21:29.067Z,2.8
2024-03-21T17:31:35.203Z,3.28
2024-03-21T17:41:42.907Z,2.78
2024-03-21T17:51:47.454Z,2.75
2024-03-21T18:01:53.601Z,2.45
2024-03-21T18:12:18.103Z,2.5
2024-03-21T18:22:24.253Z,2.48
2024-03-21T18:32:30.395Z,2.42
2024-03-21T18:43:06.092Z,2.84
2024-03-21T18:53:12.234Z,2.93
2024-03-21T19:03:18.370Z,2.95
2024-03-21T19:13:24.510Z,3.25
2024-03-21T19:23:30.676Z,3.17
2024-03-21T19:33:36.796Z,3.24
2024-03-21T19:43:42.947Z,3.07
2024-03-21T19:53:49.078Z,3.04
2024-03-21T20:03:55.215Z,2.75
2024-03-21T20:14:01.352Z,2.86
2024-03-21T20:24:07.500Z,3.48
2024-03-21T20:34:13.625Z,2.96
2024-03-21T20:44:19.789Z,3.17
2024-03-21T20:54:25.918Z,3.46
2024-03-21T21:04:32.045Z,3.23
2024-03-21T21:14:38.176Z,3
2024-03-21T21:24:44.319Z,3.08
2024-03-21T21:34:50.457Z,3.66
2024-03-21T21:44:56.657Z,2.76
2024-03-21T21:55:21.098Z,3.09
2024-03-21T22:05:27.299Z,3.21
2024-03-21T22:15:33.379Z,3.33
2024-03-21T22:25:39.536Z,2.63
2024-03-21T22:35:45.654Z,2.23
2024-03-21T22:45:51.814Z,2.99
2024-03-21T22:55:57.943Z,2.56
2024-03-21T23:06:04.078Z,2.63
2024-03-21T23:16:10.221Z,2.59
2024-03-21T23:26:16.370Z,2.51
2024-03-21T23:36:22.499Z,2.82
2024-03-21T23:46:28.632Z,2.24
2024-03-21T23:56:34.799Z,2.39
